Time;durP1;ratioP1;P1;durP2;ratioP2;P2;SDS_P1;SDS_P2;PMS_P1;PMS_P2;Temp;Humidity;BMP_temperature;BMP_pressure;BME280_temperature;BME280_humidity;BME280_pressure;Samples;Min_cycle;Max_cycle;Signal;HPM_P1;HPM_P2
2023/05/13 00:01:45;;;;;;;6.93;5.33;;;10.90;64.40;;;;;;5080934;28;45866;-64
2023/05/13 00:04:11;;;;;;;6.03;4.50;;;11.00;64.50;;;;;;5081749;28;46283;-63
2023/05/13 00:06:36;;;;;;;7.80;5.67;;;10.90;64.50;;;;;;5081874;28;46428;-64
2023/05/13 00:09:02;;;;;;;8.33;5.13;;;10.90;64.60;;;;;;5082452;28;46541;-64
2023/05/13 00:11:28;;;;;;;9.07;6.20;;;10.90;65.10;;;;;;5080627;28;46411;-64
2023/05/13 00:13:53;;;;;;;8.73;6.03;;;10.80;65.20;;;;;;5077951;28;46378;-65
2023/05/13 00:16:21;;;;;;;6.73;4.70;;;10.80;65.20;;;;;;5080707;28;46405;-64
2023/05/13 00:18:47;;;;;;;7.47;5.40;;;10.80;65.20;;;;;;5079643;28;46418;-63
2023/05/13 00:21:12;;;;;;;7.90;6.20;;;10.70;65.10;;;;;;5083730;28;46297;-63
2023/05/13 00:23:38;;;;;;;7.30;5.60;;;10.70;65.10;;;;;;5081913;28;46348;-64
2023/05/13 00:26:03;;;;;;;7.10;5.60;;;10.70;65.20;;;;;;5079556;28;46375;-62
2023/05/13 00:28:29;;;;;;;7.43;5.43;;;10.70;65.10;;;;;;5081781;28;46376;-64
2023/05/13 00:30:55;;;;;;;7.63;5.43;;;10.80;65.10;;;;;;5080264;27;46389;-64
2023/05/13 00:33:20;;;;;;;7.67;5.47;;;10.80;65.20;;;;;;5081204;28;46478;-63
2023/05/13 00:35:46;;;;;;;6.63;4.87;;;10.80;65.20;;;;;;5080317;28;47160;-63
2023/05/13 00:38:11;;;;;;;7.80;5.70;;;10.80;65.20;;;;;;5081341;28;46439;-63
2023/05/13 00:40:41;;;;;;;7.30;5.63;;;10.80;65.20;;;;;;5080902;28;46377;-63
2023/05/13 00:43:07;;;;;;;6.43;5.40;;;10.80;65.20;;;;;;5080809;28;46433;-63
2023/05/13 00:45:36;;;;;;;5.77;4.90;;;10.90;65.20;;;;;;5082079;28;46513;-63
2023/05/13 00:48:05;;;;;;;5.80;4.43;;;10.90;65.20;;;;;;5079304;28;46707;-63
2023/05/13 00:50:32;;;;;;;8.20;5.33;;;10.90;64.90;;;;;;5080449;28;46299;-63
2023/05/13 00:52:59;;;;;;;10.60;4.70;;;11.00;64.70;;;;;;5077872;28;46576;-63
2023/05/13 00:55:25;;;;;;;8.63;5.50;;;11.00;64.70;;;;;;5081309;28;47261;-63
2023/05/13 00:57:51;;;;;;;7.63;4.93;;;11.00;65.00;;;;;;5081463;28;46362;-64
2023/05/13 01:00:17;;;;;;;10.23;4.60;;;11.00;64.90;;;;;;5081776;28;46471;-63
2023/05/13 01:02:56;;;;;;;5.60;4.80;;;11.00;64.80;;;;;;5077497;28;46452;-65
2023/05/13 01:05:44;;;;;;;9.47;4.40;;;11.00;64.50;;;;;;5081216;28;46432;-63
2023/05/13 01:08:46;;;;;;;6.43;4.47;;;11.00;64.70;;;;;;5081308;28;46356;-64
2023/05/13 01:11:19;;;;;;;6.07;4.63;;;11.00;64.40;;;;;;5082450;28;46356;-64
2023/05/13 01:13:48;;;;;;;7.10;4.20;;;11.00;64.30;;;;;;5079096;28;45838;-64
2023/05/13 01:16:29;;;;;;;6.60;4.73;;;11.10;64.40;;;;;;5080570;28;46390;-64
2023/05/13 01:19:09;;;;;;;7.47;4.60;;;11.10;64.40;;;;;;5079718;28;46391;-64
2023/05/13 01:21:36;;;;;;;8.40;4.37;;;11.10;64.40;;;;;;5078118;28;46363;-64
2023/05/13 01:24:01;;;;;;;15.23;4.93;;;11.10;64.60;;;;;;5077315;28;46628;-63
2023/05/13 01:26:28;;;;;;;7.20;4.60;;;11.10;64.50;;;;;;5077039;28;46113;-63
2023/05/13 01:28:54;;;;;;;6.17;4.30;;;11.10;64.40;;;;;;5078954;28;46428;-63
2023/05/13 01:31:21;;;;;;;6.80;4.17;;;11.10;64.50;;;;;;5080368;28;46461;-63
2023/05/13 01:33:47;;;;;;;5.83;4.33;;;11.00;64.70;;;;;;5075833;28;46511;-63
2023/05/13 01:36:13;;;;;;;4.60;3.97;;;11.00;65.20;;;;;;5076967;27;46438;-63
2023/05/13 01:38:40;;;;;;;6.10;4.60;;;11.00;65.30;;;;;;5077272;28;46441;-64
2023/05/13 01:41:05;;;;;;;6.47;4.50;;;11.00;65.00;;;;;;5079060;27;46435;-63
2023/05/13 01:43:31;;;;;;;4.70;4.00;;;11.00;65.30;;;;;;5079255;28;46377;-63
2023/05/13 01:45:59;;;;;;;5.83;4.10;;;11.00;64.60;;;;;;5079404;28;45907;-63
2023/05/13 01:48:25;;;;;;;7.23;4.50;;;11.10;64.40;;;;;;5077688;28;45840;-63
2023/05/13 01:50:51;;;;;;;5.67;4.20;;;11.20;64.10;;;;;;5079216;28;46416;-63
2023/05/13 01:53:17;;;;;;;6.47;4.97;;;11.10;64.10;;;;;;5079885;28;46505;-63
2023/05/13 01:55:43;;;;;;;6.00;4.87;;;11.10;64.20;;;;;;5079955;28;46380;-63
2023/05/13 01:58:08;;;;;;;6.53;4.03;;;11.10;64.20;;;;;;5076013;28;46412;-63
2023/05/13 02:00:34;;;;;;;7.27;4.27;;;11.10;64.10;;;;;;5074948;28;46274;-63
2023/05/13 02:03:00;;;;;;;6.27;3.90;;;11.10;64.10;;;;;;5079242;28;46397;-64
2023/05/13 02:05:25;;;;;;;7.50;4.90;;;11.10;64.30;;;;;;5079005;28;46194;-63
2023/05/13 02:07:51;;;;;;;6.97;4.50;;;11.00;64.30;;;;;;5080186;28;46369;-63
2023/05/13 02:10:17;;;;;;;9.23;4.67;;;10.90;64.60;;;;;;5078235;28;46140;-63
2023/05/13 02:12:42;;;;;;;6.23;4.37;;;11.00;64.40;;;;;;5077739;28;46424;-63
2023/05/13 02:15:08;;;;;;;6.20;4.50;;;11.00;64.40;;;;;;5078095;28;46406;-63
2023/05/13 02:17:34;;;;;;;6.47;5.07;;;11.00;64.40;;;;;;5079612;28;46388;-64
2023/05/13 02:19:59;;;;;;;6.80;5.20;;;11.00;64.50;;;;;;5080337;28;46474;-63
2023/05/13 02:22:25;;;;;;;6.70;4.80;;;11.00;64.50;;;;;;5080726;28;46326;-63
2023/05/13 02:24:51;;;;;;;6.43;5.27;;;10.90;64.40;;;;;;5078300;28;46368;-63
2023/05/13 02:27:17;;;;;;;7.80;4.33;;;10.90;64.60;;;;;;5079536;28;45854;-64
2023/05/13 02:29:42;;;;;;;8.17;5.60;;;10.90;64.50;;;;;;5079871;28;46372;-63
2023/05/13 02:32:08;;;;;;;7.60;5.00;;;10.90;64.70;;;;;;5080092;28;46370;-63
2023/05/13 02:34:33;;;;;;;8.40;5.10;;;10.80;65.20;;;;;;5075638;28;46310;-63
2023/05/13 02:36:59;;;;;;;7.10;5.43;;;10.80;65.20;;;;;;5080329;28;46510;-63
2023/05/13 02:39:25;;;;;;;8.20;5.40;;;10.70;65.10;;;;;;5079930;28;45796;-63
2023/05/13 02:41:51;;;;;;;8.20;5.57;;;10.80;65.20;;;;;;5079090;28;46405;-64
2023/05/13 02:44:16;;;;;;;7.00;5.40;;;10.80;65.20;;;;;;5079008;28;46483;-63
2023/05/13 02:46:43;;;;;;;9.20;5.33;;;10.90;64.70;;;;;;5075710;28;46549;-64
2023/05/13 02:49:09;;;;;;;7.27;5.03;;;10.80;65.10;;;;;;5077948;28;46486;-64
2023/05/13 02:51:34;;;;;;;7.43;5.60;;;10.80;66.40;;;;;;5075225;28;46463;-64
2023/05/13 02:54:00;;;;;;;8.03;6.17;;;10.80;65.10;;;;;;5077264;28;47343;-63
2023/05/13 02:56:25;;;;;;;10.70;6.33;;;10.80;64.90;;;;;;5078203;28;45818;-64
2023/05/13 02:58:51;;;;;;;9.33;6.07;;;10.80;65.20;;;;;;5077647;28;46378;-63
2023/05/13 03:01:17;;;;;;;12.17;6.67;;;10.70;65.00;;;;;;5076360;28;46587;-64
2023/05/13 03:03:42;;;;;;;11.70;6.93;;;10.60;65.00;;;;;;5077969;28;46329;-64
2023/05/13 03:06:08;;;;;;;11.57;7.10;;;10.70;65.20;;;;;;5078704;28;46414;-64
2023/05/13 03:08:33;;;;;;;10.97;7.80;;;10.70;65.10;;;;;;5078899;28;46321;-63
2023/05/13 03:11:00;;;;;;;12.77;7.80;;;10.60;65.00;;;;;;5078214;28;45848;-64
2023/05/13 03:13:25;;;;;;;12.10;8.20;;;10.50;65.10;;;;;;5079651;28;46571;-63
2023/05/13 03:15:51;;;;;;;16.07;8.50;;;10.50;65.50;;;;;;5076439;28;46419;-64
2023/05/13 03:18:16;;;;;;;13.43;8.17;;;10.40;66.10;;;;;;5075979;28;46334;-63
2023/05/13 03:20:42;;;;;;;14.40;8.83;;;10.40;66.20;;;;;;5076389;28;46743;-63
2023/05/13 03:23:08;;;;;;;10.70;7.83;;;10.50;65.90;;;;;;5074961;28;46507;-63
2023/05/13 03:25:33;;;;;;;11.03;8.27;;;10.50;65.80;;;;;;5078386;28;46368;-63
2023/05/13 03:27:59;;;;;;;11.90;8.27;;;10.60;65.60;;;;;;5077269;28;46337;-63
2023/05/13 03:30:25;;;;;;;17.90;10.60;;;10.50;65.50;;;;;;5078394;28;46406;-64
2023/05/13 03:32:50;;;;;;;17.80;9.80;;;10.50;65.90;;;;;;5076619;28;46126;-64
2023/05/13 03:35:16;;;;;;;15.37;10.07;;;10.50;65.90;;;;;;5079059;28;46488;-64
2023/05/13 03:37:42;;;;;;;20.17;12.20;;;10.50;65.80;;;;;;5077223;28;46445;-64
2023/05/13 03:40:08;;;;;;;22.53;13.87;;;10.50;66.10;;;;;;5079180;28;46358;-65
2023/05/13 03:42:33;;;;;;;35.40;19.40;;;10.50;66.20;;;;;;5073588;28;46590;-64
2023/05/13 03:44:59;;;;;;;23.07;15.10;;;10.40;66.20;;;;;;5079691;28;46364;-64
2023/05/13 03:47:24;;;;;;;28.13;17.47;;;10.40;66.60;;;;;;5074918;28;46343;-64
2023/05/13 03:49:50;;;;;;;35.50;18.87;;;10.30;66.90;;;;;;5074976;28;46253;-64
2023/05/13 03:52:16;;;;;;;28.73;17.17;;;10.20;67.60;;;;;;5079080;28;46218;-64
2023/05/13 03:54:41;;;;;;;27.10;17.70;;;10.20;68.10;;;;;;5075320;28;46310;-64
2023/05/13 03:57:07;;;;;;;26.23;14.30;;;10.20;68.20;;;;;;5077062;28;46770;-64
2023/05/13 03:59:33;;;;;;;21.63;14.60;;;10.20;68.00;;;;;;5077893;28;46654;-63
2023/05/13 04:01:58;;;;;;;25.17;15.57;;;10.20;68.00;;;;;;5078661;28;46455;-64
2023/05/13 04:04:24;;;;;;;23.50;13.90;;;10.30;68.10;;;;;;5076058;28;46431;-63
2023/05/13 04:06:49;;;;;;;23.00;14.30;;;10.30;67.90;;;;;;5081898;28;46447;-64
2023/05/13 04:09:15;;;;;;;25.70;16.30;;;10.30;67.80;;;;;;5078518;28;46304;-63
2023/05/13 04:11:41;;;;;;;26.67;15.73;;;10.40;67.70;;;;;;5077716;28;47010;-63
2023/05/13 04:14:06;;;;;;;25.53;13.87;;;10.30;67.90;;;;;;5081951;28;46422;-63
2023/05/13 04:16:32;;;;;;;29.13;14.03;;;10.40;67.90;;;;;;5081188;28;46436;-63
2023/05/13 04:18:57;;;;;;;22.83;12.93;;;10.40;67.90;;;;;;5082099;28;46289;-63
2023/05/13 04:21:23;;;;;;;21.07;13.97;;;10.30;68.20;;;;;;5078385;28;47961;-63
2023/05/13 04:23:48;;;;;;;19.87;12.13;;;10.30;68.80;;;;;;5080218;28;46274;-64
2023/05/13 04:26:14;;;;;;;18.90;13.17;;;10.30;68.60;;;;;;5081060;28;46388;-64
2023/05/13 04:28:39;;;;;;;25.90;14.80;;;10.40;68.30;;;;;;5081124;28;46581;-64
2023/05/13 04:31:05;;;;;;;24.20;15.63;;;10.40;68.40;;;;;;5082863;28;46317;-63
2023/05/13 04:33:31;;;;;;;26.67;14.53;;;10.40;68.40;;;;;;5081088;28;46373;-64
2023/05/13 04:35:56;;;;;;;24.97;14.57;;;10.30;68.70;;;;;;5080873;28;46289;-64
2023/05/13 04:38:22;;;;;;;30.30;16.20;;;10.30;69.20;;;;;;5080641;28;46259;-65
2023/05/13 04:40:47;;;;;;;25.83;14.90;;;10.30;69.60;;;;;;5079515;28;46365;-63
2023/05/13 04:43:13;;;;;;;27.43;15.67;;;10.30;69.70;;;;;;5081002;28;46535;-64
2023/05/13 04:45:39;;;;;;;29.03;16.23;;;10.40;69.30;;;;;;5079532;28;46434;-63
2023/05/13 04:48:05;;;;;;;29.13;15.10;;;10.40;69.20;;;;;;5081578;28;45858;-64
2023/05/13 04:50:31;;;;;;;27.67;16.37;;;10.30;69.80;;;;;;5079228;28;45927;-64
2023/05/13 04:52:57;;;;;;;28.87;16.27;;;10.30;70.30;;;;;;5081192;28;46493;-64
2023/05/13 04:55:22;;;;;;;32.77;17.43;;;10.30;70.30;;;;;;5080072;28;46461;-65
2023/05/13 04:57:48;;;;;;;32.57;17.03;;;10.20;70.90;;;;;;5081302;28;46400;-62
2023/05/13 05:00:14;;;;;;;30.20;16.20;;;10.30;71.30;;;;;;5081075;28;47367;-64
2023/05/13 05:02:40;;;;;;;29.63;17.50;;;10.20;71.40;;;;;;5078323;28;46368;-63
2023/05/13 05:05:05;;;;;;;33.40;18.10;;;10.20;71.80;;;;;;5080734;28;46544;-63
2023/05/13 05:07:31;;;;;;;31.70;17.30;;;10.20;72.20;;;;;;5079358;28;46645;-64
2023/05/13 05:09:57;;;;;;;28.77;17.10;;;10.30;72.10;;;;;;5078826;28;46464;-64
2023/05/13 05:12:22;;;;;;;30.30;18.30;;;10.20;72.30;;;;;;5077996;28;46369;-64
2023/05/13 05:14:48;;;;;;;33.50;18.23;;;10.20;73.50;;;;;;5079896;28;46515;-64
2023/05/13 05:17:14;;;;;;;34.10;18.57;;;10.30;72.30;;;;;;5080250;28;46361;-64
2023/05/13 05:19:40;;;;;;;38.47;18.70;;;10.30;72.30;;;;;;5080751;28;46730;-64
2023/05/13 05:22:05;;;;;;;34.30;18.50;;;10.30;73.50;;;;;;5080312;28;46507;-64
2023/05/13 05:24:31;;;;;;;35.43;19.23;;;10.30;72.40;;;;;;5078628;28;46548;-64
2023/05/13 05:26:56;;;;;;;28.53;17.43;;;10.20;72.80;;;;;;5080222;28;46417;-65
2023/05/13 05:29:22;;;;;;;30.70;19.37;;;10.30;72.70;;;;;;5078140;28;46481;-66
2023/05/13 05:31:48;;;;;;;30.37;17.70;;;10.40;72.40;;;;;;5081344;28;46413;-63
2023/05/13 05:34:13;;;;;;;30.57;17.30;;;10.40;72.40;;;;;;5077239;28;46464;-64
2023/05/13 05:36:39;;;;;;;33.07;19.30;;;10.30;72.90;;;;;;5079789;28;45844;-63
2023/05/13 05:39:04;;;;;;;35.30;19.50;;;10.30;72.90;;;;;;5080953;28;47056;-64
2023/05/13 05:41:31;;;;;;;36.50;18.60;;;10.30;72.90;;;;;;5079244;28;46443;-62
2023/05/13 05:43:56;;;;;;;34.20;18.07;;;10.40;72.80;;;;;;5078840;28;46431;-63
2023/05/13 05:46:22;;;;;;;32.50;18.90;;;10.40;72.90;;;;;;5077574;28;46307;-63
2023/05/13 05:48:48;;;;;;;32.80;18.70;;;10.40;72.80;;;;;;5078659;28;46319;-64
2023/05/13 05:51:14;;;;;;;30.47;17.67;;;10.50;72.90;;;;;;5080474;28;45902;-64
2023/05/13 05:53:41;;;;;;;30.40;17.30;;;10.50;72.90;;;;;;5079447;28;46599;-63
2023/05/13 05:56:06;;;;;;;26.67;16.50;;;10.60;72.70;;;;;;5079810;28;46443;-64
2023/05/13 05:58:32;;;;;;;34.70;17.70;;;10.60;72.30;;;;;;5080405;28;47087;-65
2023/05/13 06:00:59;;;;;;;30.03;16.83;;;10.70;72.20;;;;;;5078494;28;46428;-66
2023/05/13 06:03:25;;;;;;;28.93;16.43;;;10.80;71.90;;;;;;5076599;28;46407;-64
2023/05/13 06:05:51;;;;;;;26.33;16.10;;;10.80;71.90;;;;;;5078271;28;46428;-63
2023/05/13 06:08:16;;;;;;;25.30;16.87;;;10.90;71.80;;;;;;5077927;28;47275;-64
2023/05/13 06:10:43;;;;;;;27.13;15.47;;;11.00;71.70;;;;;;5077592;28;46692;-64
2023/05/13 06:13:08;;;;;;;24.97;16.17;;;11.00;71.40;;;;;;5076604;28;46519;-64
2023/05/13 06:15:35;;;;;;;29.90;15.60;;;11.00;71.30;;;;;;5079183;28;46430;-64
2023/05/13 06:18:03;;;;;;;22.97;15.40;;;11.10;71.40;;;;;;5080987;28;47138;-64
2023/05/13 06:20:29;;;;;;;22.33;13.97;;;11.00;71.50;;;;;;5078516;28;46489;-65
2023/05/13 06:22:54;;;;;;;23.80;16.30;;;10.90;72.00;;;;;;5076868;28;46377;-64
2023/05/13 06:25:20;;;;;;;24.30;16.40;;;10.90;71.90;;;;;;5078454;28;46391;-64
2023/05/13 06:27:45;;;;;;;21.70;15.50;;;11.00;71.70;;;;;;5078939;27;47712;-63
2023/05/13 06:30:11;;;;;;;22.53;15.40;;;11.00;71.60;;;;;;5079261;28;46477;-63
2023/05/13 06:32:37;;;;;;;22.67;15.60;;;11.00;71.70;;;;;;5078517;28;46270;-63
2023/05/13 06:35:03;;;;;;;22.57;15.10;;;10.90;71.90;;;;;;5077218;28;45804;-63
2023/05/13 06:37:28;;;;;;;22.20;14.63;;;10.90;71.80;;;;;;5078173;28;48285;-63
2023/05/13 06:39:54;;;;;;;23.77;15.70;;;10.90;72.10;;;;;;5080048;28;45820;-63
2023/05/13 06:42:19;;;;;;;25.30;16.03;;;10.90;72.10;;;;;;5081249;28;46360;-63
2023/05/13 06:44:45;;;;;;;24.70;15.30;;;10.90;72.40;;;;;;5079360;28;46380;-63
2023/05/13 06:47:14;;;;;;;25.70;16.10;;;10.80;72.60;;;;;;5080336;28;46595;-64
2023/05/13 06:49:41;;;;;;;22.33;15.33;;;10.80;73.50;;;;;;5078677;28;46396;-64
2023/05/13 06:52:07;;;;;;;22.40;15.07;;;10.80;72.50;;;;;;5078746;28;46464;-64
2023/05/13 06:54:33;;;;;;;28.03;16.80;;;10.70;72.60;;;;;;5079610;28;46317;-64
2023/05/13 06:56:58;;;;;;;25.83;14.83;;;10.70;72.70;;;;;;5077997;28;45950;-64
2023/05/13 06:59:24;;;;;;;24.47;14.90;;;10.70;72.90;;;;;;5075802;28;46510;-63
2023/05/13 07:01:51;;;;;;;31.07;16.03;;;10.50;73.40;;;;;;5078590;28;46496;-63
2023/05/13 07:04:17;;;;;;;31.40;16.40;;;10.60;73.20;;;;;;5080367;28;46496;-64
2023/05/13 07:06:42;;;;;;;24.83;15.67;;;10.80;72.60;;;;;;5077730;28;46412;-63
2023/05/13 07:09:08;;;;;;;21.47;14.27;;;10.80;72.60;;;;;;5079482;28;45782;-64
2023/05/13 07:11:35;;;;;;;19.70;13.07;;;10.80;72.40;;;;;;5076796;28;46406;-64
2023/05/13 07:14:00;;;;;;;20.57;13.43;;;10.90;72.20;;;;;;5074449;28;46413;-64
2023/05/13 07:16:26;;;;;;;20.10;13.20;;;11.00;72.20;;;;;;5077247;28;47003;-64
2023/05/13 07:18:53;;;;;;;21.60;13.90;;;11.00;72.20;;;;;;5076021;28;47451;-64
2023/05/13 07:21:18;;;;;;;23.87;14.57;;;11.00;72.20;;;;;;5080864;28;46420;-64
2023/05/13 07:23:44;;;;;;;24.27;14.33;;;11.10;72.00;;;;;;5076603;28;46333;-64
2023/05/13 07:26:10;;;;;;;25.13;14.20;;;11.20;71.70;;;;;;5079333;28;46967;-65
2023/05/13 07:28:35;;;;;;;19.60;11.90;;;11.40;71.40;;;;;;5077951;28;46432;-64
2023/05/13 07:31:03;;;;;;;23.30;12.73;;;11.60;70.90;;;;;;5079116;28;46413;-63
2023/05/13 07:33:28;;;;;;;21.63;12.13;;;11.70;70.50;;;;;;5078483;28;46460;-64
2023/05/13 07:35:54;;;;;;;23.37;13.43;;;11.70;70.50;;;;;;5078706;28;45997;-63
2023/05/13 07:38:20;;;;;;;22.17;12.90;;;11.80;70.30;;;;;;5077934;28;46399;-63
2023/05/13 07:40:45;;;;;;;21.10;12.60;;;11.80;70.20;;;;;;5080716;27;46432;-64
2023/05/13 07:43:12;;;;;;;20.27;11.27;;;11.80;70.40;;;;;;5083074;28;46477;-64
2023/05/13 07:45:38;;;;;;;20.40;12.60;;;11.80;70.70;;;;;;5078961;28;46444;-64
2023/05/13 07:48:04;;;;;;;17.80;10.93;;;11.80;72.00;;;;;;5079942;28;46555;-64
2023/05/13 07:50:30;;;;;;;16.40;10.50;;;11.90;70.50;;;;;;5081085;28;46508;-64
2023/05/13 07:52:56;;;;;;;20.03;11.53;;;11.90;70.30;;;;;;5081884;28;46397;-64
2023/05/13 07:55:22;;;;;;;17.27;10.53;;;11.90;70.10;;;;;;5082204;28;47219;-64
2023/05/13 07:57:47;;;;;;;16.50;9.50;;;12.00;70.00;;;;;;5079863;28;45965;-64
2023/05/13 08:00:14;;;;;;;16.73;10.07;;;11.80;69.80;;;;;;5080140;28;46522;-64
2023/05/13 08:02:42;;;;;;;15.67;10.43;;;11.60;70.40;;;;;;5080480;28;45877;-64
2023/05/13 08:05:09;;;;;;;19.67;11.13;;;11.60;71.00;;;;;;5079537;28;46690;-65
2023/05/13 08:07:35;;;;;;;14.73;9.53;;;11.70;70.60;;;;;;5079683;28;46542;-63
2023/05/13 08:10:00;;;;;;;14.10;8.93;;;11.60;70.70;;;;;;5077099;28;46418;-64
2023/05/13 08:12:26;;;;;;;16.07;9.93;;;11.50;71.00;;;;;;5078434;28;46420;-64
2023/05/13 08:14:52;;;;;;;15.00;9.80;;;11.40;71.00;;;;;;5075508;28;46290;-64
2023/05/13 08:17:18;;;;;;;15.47;9.97;;;11.50;70.90;;;;;;5082752;27;46318;-63
2023/05/13 08:19:44;;;;;;;17.30;10.87;;;11.60;70.60;;;;;;5081535;28;46436;-64
2023/05/13 08:22:10;;;;;;;17.27;9.93;;;11.60;70.30;;;;;;5079403;28;46500;-63
2023/05/13 08:24:36;;;;;;;16.47;10.10;;;11.80;70.00;;;;;;5074645;28;46348;-64
2023/05/13 08:27:02;;;;;;;15.50;8.90;;;11.90;69.50;;;;;;5079389;28;46419;-64
2023/05/13 08:29:28;;;;;;;14.57;9.30;;;12.20;68.80;;;;;;5082798;28;45805;-64
2023/05/13 08:31:54;;;;;;;17.10;10.23;;;12.30;68.30;;;;;;5078357;28;46438;-64
2023/05/13 08:34:19;;;;;;;15.47;8.93;;;12.30;68.40;;;;;;5082640;28;47141;-64
2023/05/13 08:36:45;;;;;;;13.20;8.23;;;12.50;67.90;;;;;;5078861;28;46410;-62
2023/05/13 08:39:11;;;;;;;14.37;8.33;;;12.50;68.00;;;;;;5082096;28;46444;-64
2023/05/13 08:41:37;;;;;;;14.43;9.07;;;12.60;67.50;;;;;;5082271;28;46547;-63
2023/05/13 08:44:05;;;;;;;15.83;9.10;;;12.70;66.90;;;;;;5079056;28;46540;-65
2023/05/13 08:46:33;;;;;;;15.33;8.93;;;12.80;67.00;;;;;;5076245;28;45770;-64
2023/05/13 08:49:00;;;;;;;13.43;8.50;;;12.70;66.90;;;;;;5080572;28;46369;-64
2023/05/13 08:51:26;;;;;;;14.53;8.13;;;12.80;67.00;;;;;;5080400;27;46667;-64
2023/05/13 08:53:53;;;;;;;14.33;8.80;;;12.60;66.80;;;;;;5080854;28;46363;-64
2023/05/13 08:56:21;;;;;;;14.57;9.20;;;12.50;66.70;;;;;;5079702;28;45786;-63
2023/05/13 08:58:46;;;;;;;13.37;8.50;;;12.50;66.70;;;;;;5079773;28;46358;-63
2023/05/13 09:01:12;;;;;;;13.83;8.83;;;12.30;67.00;;;;;;5078332;28;46737;-64
2023/05/13 09:04:07;;;;;;;15.57;8.93;;;12.20;67.50;;;;;;5079698;28;46387;-63
2023/05/13 09:06:33;;;;;;;16.10;8.73;;;12.20;67.50;;;;;;5079521;28;46087;-63
2023/05/13 09:08:59;;;;;;;12.23;8.00;;;12.30;66.50;;;;;;5077315;28;46437;-64
2023/05/13 09:11:25;;;;;;;15.73;7.80;;;12.20;67.00;;;;;;5079515;28;46775;-63
2023/05/13 09:14:05;;;;;;;13.63;8.83;;;12.20;67.10;;;;;;5076253;28;46396;-64
2023/05/13 09:16:31;;;;;;;15.27;8.10;;;12.20;66.90;;;;;;5081808;28;46380;-64
2023/05/13 09:19:02;;;;;;;15.20;8.50;;;12.30;66.50;;;;;;5080458;28;46465;-63
2023/05/13 09:21:34;;;;;;;18.10;8.57;;;12.30;66.50;;;;;;5078320;28;46231;-64
2023/05/13 09:24:17;;;;;;;12.60;7.23;;;12.30;66.50;;;;;;5079246;28;46388;-63
2023/05/13 09:26:44;;;;;;;10.80;7.43;;;12.40;66.60;;;;;;5078379;28;46372;-64
2023/05/13 09:29:15;;;;;;;11.10;7.50;;;12.20;66.40;;;;;;5078723;28;45940;-64
2023/05/13 09:31:41;;;;;;;15.13;7.60;;;12.10;66.80;;;;;;5076854;28;46262;-63
2023/05/13 09:34:07;;;;;;;14.30;6.97;;;12.10;67.10;;;;;;5077855;28;46756;-63
2023/05/13 09:36:33;;;;;;;10.83;7.40;;;12.10;66.70;;;;;;5077251;28;46623;-64
2023/05/13 09:38:58;;;;;;;14.50;8.03;;;12.10;67.10;;;;;;5077701;28;46519;-63
2023/05/13 09:41:26;;;;;;;17.90;8.23;;;12.10;66.70;;;;;;5082014;28;46431;-64
2023/05/13 09:43:51;;;;;;;15.70;7.60;;;12.20;66.50;;;;;;5078409;28;46793;-64
2023/05/13 09:46:17;;;;;;;16.40;8.67;;;12.20;66.50;;;;;;5080728;27;46362;-64
2023/05/13 09:48:43;;;;;;;13.93;7.50;;;12.40;66.60;;;;;;5073123;28;46349;-64
2023/05/13 09:51:08;;;;;;;11.57;6.90;;;12.40;66.20;;;;;;5082221;28;46325;-63
2023/05/13 09:53:34;;;;;;;11.13;7.87;;;12.50;65.80;;;;;;5077004;28;46894;-63
2023/05/13 09:56:00;;;;;;;14.20;7.53;;;12.50;65.90;;;;;;5075558;28;46229;-63
2023/05/13 09:58:28;;;;;;;16.57;7.00;;;12.50;65.60;;;;;;5081704;28;45880;-64
2023/05/13 10:00:54;;;;;;;11.00;7.20;;;12.60;65.30;;;;;;5077831;28;46332;-64
2023/05/13 10:03:21;;;;;;;13.73;6.83;;;12.90;64.50;;;;;;5075492;27;46560;-63
2023/05/13 10:05:47;;;;;;;20.00;6.83;;;13.10;63.50;;;;;;5079059;28;46386;-64
2023/05/13 10:08:14;;;;;;;10.90;7.40;;;13.60;62.40;;;;;;5078371;28;46553;-64
2023/05/13 10:10:44;;;;;;;8.87;5.77;;;13.60;61.80;;;;;;5080048;28;46361;-63
2023/05/13 10:13:13;;;;;;;11.77;5.83;;;13.60;61.70;;;;;;5078728;28;46433;-63
2023/05/13 10:15:53;;;;;;;24.60;7.20;;;13.60;61.40;;;;;;5079029;28;46298;-64
2023/05/13 10:18:20;;;;;;;9.83;5.33;;;13.60;61.50;;;;;;5076784;28;46433;-64
2023/05/13 10:20:46;;;;;;;8.33;5.97;;;13.50;61.30;;;;;;5077253;28;45925;-64
2023/05/13 10:23:12;;;;;;;8.00;5.30;;;13.20;61.80;;;;;;5073624;28;47059;-64
2023/05/13 10:25:38;;;;;;;8.80;5.80;;;13.10;62.30;;;;;;5072727;28;46553;-62
2023/05/13 10:28:05;;;;;;;8.77;5.90;;;13.00;62.20;;;;;;5079010;28;46327;-63
2023/05/13 10:30:32;;;;;;;7.90;5.10;;;13.00;62.30;;;;;;5078081;28;46511;-64
2023/05/13 10:32:58;;;;;;;6.77;5.47;;;13.00;61.90;;;;;;5076006;28;46532;-64
2023/05/13 10:35:28;;;;;;;7.50;5.67;;;13.00;62.00;;;;;;5077707;28;46486;-64
2023/05/13 10:38:02;;;;;;;10.83;5.57;;;13.10;61.60;;;;;;5075747;28;46561;-64
2023/05/13 10:40:31;;;;;;;8.63;6.00;;;13.10;61.20;;;;;;5076690;28;46534;-63
2023/05/13 10:43:17;;;;;;;9.70;6.67;;;13.10;61.50;;;;;;5078038;28;48066;-62
2023/05/13 10:45:50;;;;;;;11.43;6.83;;;13.10;61.30;;;;;;5075028;28;46404;-64
2023/05/13 10:48:17;;;;;;;9.47;6.70;;;13.30;61.20;;;;;;5077877;28;45833;-63
2023/05/13 10:50:53;;;;;;;10.37;6.17;;;13.50;60.50;;;;;;5077541;28;46757;-62
2023/05/13 10:53:29;;;;;;;8.73;6.43;;;13.70;59.90;;;;;;5079707;28;46250;-63
2023/05/13 10:55:56;;;;;;;7.80;5.43;;;14.10;57.70;;;;;;5075208;28;46522;-64
2023/05/13 10:58:33;;;;;;;8.03;4.73;;;14.20;57.10;;;;;;5077105;28;46365;-64
2023/05/13 11:01:17;;;;;;;6.53;4.87;;;14.10;56.80;;;;;;5075248;28;46399;-64
2023/05/13 11:03:54;;;;;;;6.17;4.10;;;14.10;57.20;;;;;;5076354;28;45988;-63
2023/05/13 11:06:22;;;;;;;9.40;4.80;;;14.20;57.20;;;;;;5077507;28;46425;-63
2023/05/13 11:08:49;;;;;;;6.30;4.57;;;14.20;55.50;;;;;;5076548;28;46483;-65
2023/05/13 11:11:25;;;;;;;7.50;5.00;;;14.40;55.70;;;;;;5076566;28;46779;-63
2023/05/13 11:13:50;;;;;;;5.67;4.33;;;14.70;55.20;;;;;;5073206;28;46422;-64
2023/05/13 11:16:17;;;;;;;10.27;4.33;;;14.90;54.60;;;;;;5081914;28;46366;-63
2023/05/13 11:18:43;;;;;;;9.50;5.90;;;15.10;53.80;;;;;;5079878;28;46423;-64
2023/05/13 11:21:08;;;;;;;5.80;3.93;;;15.30;53.00;;;;;;5081142;28;46746;-63
2023/05/13 11:23:50;;;;;;;7.87;4.23;;;15.10;53.30;;;;;;5080320;28;47299;-65
2023/05/13 11:26:16;;;;;;;10.07;3.50;;;14.90;53.60;;;;;;5075807;28;46522;-64
2023/05/13 11:28:58;;;;;;;6.03;3.70;;;14.50;54.30;;;;;;5082214;28;46671;-64
2023/05/13 11:31:25;;;;;;;3.97;3.30;;;13.90;55.20;;;;;;5080132;28;46616;-64
2023/05/13 11:34:18;;;;;;;4.50;3.33;;;13.70;55.30;;;;;;5080011;28;46446;-65
2023/05/13 11:37:10;;;;;;;4.60;3.53;;;13.70;55.00;;;;;;5073676;27;46376;-63
2023/05/13 11:39:40;;;;;;;4.37;3.33;;;14.00;55.30;;;;;;5078366;27;46207;-63
2023/05/13 11:42:07;;;;;;;5.17;3.60;;;14.10;55.30;;;;;;5079401;28;46500;-64
2023/05/13 11:44:34;;;;;;;4.87;3.50;;;14.20;54.60;;;;;;5080327;28;47091;-64
2023/05/13 11:47:02;;;;;;;5.70;3.80;;;14.30;54.10;;;;;;5074899;28;46229;-64
2023/05/13 11:49:42;;;;;;;6.13;3.73;;;14.50;53.10;;;;;;5080574;28;46468;-63
2023/05/13 11:52:10;;;;;;;6.10;3.63;;;14.30;53.50;;;;;;5081882;28;45816;-65
2023/05/13 11:54:54;;;;;;;4.00;3.20;;;14.40;53.60;;;;;;5079262;28;46881;-65
2023/05/13 11:57:20;;;;;;;5.73;3.17;;;14.40;53.30;;;;;;5078552;28;46575;-63
2023/05/13 11:59:49;;;;;;;4.80;3.00;;;14.10;53.80;;;;;;5079999;28;46439;-63
2023/05/13 12:02:15;;;;;;;4.57;3.50;;;14.00;54.30;;;;;;5079148;28;46471;-63
2023/05/13 12:04:42;;;;;;;5.40;3.53;;;13.90;54.20;;;;;;5076146;28;46668;-63
2023/05/13 12:07:10;;;;;;;4.43;3.30;;;13.90;54.20;;;;;;5080498;28;46377;-64
2023/05/13 12:09:36;;;;;;;5.30;3.40;;;13.80;54.20;;;;;;5080545;28;46348;-65
2023/05/13 12:12:02;;;;;;;4.30;3.10;;;13.80;54.10;;;;;;5080011;28;46649;-64
2023/05/13 12:14:29;;;;;;;5.27;3.77;;;13.70;55.00;;;;;;5079694;28;46342;-65
2023/05/13 12:16:56;;;;;;;5.57;4.20;;;13.60;55.00;;;;;;5080845;28;46713;-64
2023/05/13 12:19:21;;;;;;;4.47;3.40;;;13.50;54.90;;;;;;5078764;28;46478;-65
2023/05/13 12:21:50;;;;;;;4.67;3.63;;;13.60;55.00;;;;;;5078390;28;46647;-64
2023/05/13 12:24:22;;;;;;;5.33;3.70;;;13.60;55.00;;;;;;5077118;28;46622;-66
2023/05/13 12:26:48;;;;;;;6.43;3.90;;;13.70;55.00;;;;;;5075311;27;46491;-64
2023/05/13 12:29:14;;;;;;;6.67;3.97;;;13.60;55.00;;;;;;5080268;28;46428;-65
2023/05/13 12:31:42;;;;;;;5.27;3.77;;;13.80;54.70;;;;;;5077724;28;46890;-64
2023/05/13 12:34:08;;;;;;;4.73;3.87;;;13.80;54.60;;;;;;5075149;28;46426;-65
2023/05/13 12:36:37;;;;;;;4.83;3.77;;;13.90;54.40;;;;;;5080586;28;45791;-65
2023/05/13 12:39:06;;;;;;;6.40;4.10;;;14.20;54.00;;;;;;5077226;28;46433;-64